Terminal Aerodrome Forecast
Issued by NWS

Home | Current Version | Previous Version | Text Only | Print | Product List | Glossary On
Versions: 1 2 3 4 5 6 7 8 9 10 11 12 13 14 15 16 17 18 19
288
FTUS41 KGYX 222335
TAFPSM
TAF
KPSM 222335Z 2300/2324 14009KT 4SM -SHRA BR OVC003
     FM230200 15009KT 2SM BR OVC003
     FM231000 24006KT 1 1/2SM BR BKN002
     FM231300 31005KT P6SM BKN070
     FM231900 12007KT P6SM BKN250=

USA.gov is the U.S. government's official web portal to all federal, state and local government web resources and services.